Time;durP1;ratioP1;P1;durP2;ratioP2;P2;SDS_P1;SDS_P2;PMS_P1;PMS_P2;Temp;Humidity;BMP_temperature;BMP_pressure;BME280_temperature;BME280_humidity;BME280_pressure;Samples;Min_cycle;Max_cycle;Signal;HPM_P1;HPM_P2
2022/04/10 00:00:05;;;;;;;4.40;3.27;;;;;;;20.92;38.59;99473.92;1662580;86;20976;-60
2022/04/10 00:02:31;;;;;;;5.33;3.72;;;;;;;20.92;38.56;99468.96;1662482;86;20985;-60
2022/04/10 00:04:57;;;;;;;5.30;3.52;;;;;;;20.92;38.57;99471.16;1662612;85;20910;-60
2022/04/10 00:07:29;;;;;;;4.55;3.70;;;;;;;20.92;38.56;99477.25;1662179;86;21067;-60
2022/04/10 00:09:55;;;;;;;5.37;4.00;;;;;;;20.91;38.55;99476.48;1662696;86;20917;-59
2022/04/10 00:12:21;;;;;;;4.90;3.72;;;;;;;20.93;38.57;99473.34;1662662;86;21416;-60
2022/04/10 00:14:48;;;;;;;5.72;3.58;;;;;;;20.92;38.55;99473.92;1662439;86;21215;-60
2022/04/10 00:17:14;;;;;;;5.97;3.70;;;;;;;20.91;38.58;99469.56;1662365;86;21370;-60
2022/04/10 00:19:41;;;;;;;5.35;3.50;;;;;;;20.92;38.57;99468.96;1662474;86;21329;-60
2022/04/10 00:22:08;;;;;;;5.35;3.70;;;;;;;20.91;38.56;99472.33;1662488;86;20981;-60
2022/04/10 00:24:34;;;;;;;5.55;3.52;;;;;;;20.92;38.56;99475.87;1662586;86;21430;-60
2022/04/10 00:27:00;;;;;;;4.90;3.60;;;;;;;20.92;38.56;99475.87;1662577;85;20925;-60
2022/04/10 00:29:26;;;;;;;5.28;3.50;;;;;;;20.92;38.56;99477.25;1662385;86;21084;-59
2022/04/10 00:31:52;;;;;;;5.28;3.67;;;;;;;20.91;38.56;99482.01;1662725;85;22107;-60
2022/04/10 00:34:18;;;;;;;6.25;3.70;;;;;;;20.91;38.56;99482.01;1662507;86;20921;-60
2022/04/10 00:36:44;;;;;;;5.12;3.80;;;;;;;20.90;38.58;99481.77;1662517;86;21338;-60
2022/04/10 00:39:10;;;;;;;5.05;3.67;;;;;;;20.91;38.57;99477.86;1662343;86;21009;-60
2022/04/10 00:41:42;;;;;;;4.42;3.22;;;;;;;20.90;38.57;99484.54;1662517;86;21390;-60
2022/04/10 00:44:11;;;;;;;4.40;3.35;;;;;;;20.91;38.58;99483.97;1662443;86;21323;-60
2022/04/10 00:46:38;;;;;;;5.87;3.58;;;;;;;20.90;38.57;99482.34;1662630;85;20978;-60
2022/04/10 00:49:05;;;;;;;7.40;3.42;;;;;;;20.89;38.59;99478.77;1662442;86;21045;-60
2022/04/10 00:51:52;;;;;;;5.30;3.27;;;;;;;20.89;38.59;99480.16;1662317;86;21422;-60
2022/04/10 00:54:24;;;;;;;5.17;3.52;;;;;;;20.89;38.58;99479.34;1661803;86;20978;-60
2022/04/10 00:56:51;;;;;;;5.17;3.47;;;;;;;20.88;38.59;99474.39;1662414;86;21153;-60
2022/04/10 00:59:17;;;;;;;4.97;3.52;;;;;;;20.87;38.60;99467.85;1662675;86;20933;-59
2022/04/10 01:01:51;;;;;;;6.58;3.70;;;;;;;20.87;38.59;99475.58;1662660;85;20950;-60
2022/04/10 01:04:18;;;;;;;5.53;3.65;;;;;;;20.87;38.60;99470.05;1662467;86;21516;-59
2022/04/10 01:06:47;;;;;;;5.50;3.47;;;;;;;20.87;38.59;99474.77;1662824;86;20949;-60
2022/04/10 01:09:14;;;;;;;4.90;3.80;;;;;;;20.86;38.60;99467.05;1616995;86;21055;-60
2022/04/10 01:11:40;;;;;;;4.97;3.52;;;;;;;20.86;38.59;99467.05;1662516;85;21306;-60
2022/04/10 01:14:08;;;;;;;5.40;3.40;;;;;;;20.87;38.59;99471.42;1662876;86;20985;-60
2022/04/10 01:16:34;;;;;;;5.37;3.12;;;;;;;20.87;38.60;99465.09;1662841;86;20993;-60
2022/04/10 01:19:04;;;;;;;6.17;3.55;;;;;;;20.87;38.60;99472.81;1662439;86;21468;-60
2022/04/10 01:21:32;;;;;;;4.42;3.35;;;;;;;20.87;38.59;99470.62;1662925;86;21145;-60
2022/04/10 01:23:59;;;;;;;4.62;3.25;;;;;;;20.87;38.59;99463.70;1662565;86;20961;-60
2022/04/10 01:26:27;;;;;;;4.17;3.08;;;;;;;20.87;38.59;99464.52;1662351;86;21485;-60
2022/04/10 01:29:04;;;;;;;4.50;3.30;;;;;;;20.86;38.59;99461.52;1662679;86;21458;-60
2022/04/10 01:31:32;;;;;;;5.42;3.67;;;;;;;20.87;38.58;99463.13;1662591;85;21013;-60
2022/04/10 01:34:07;;;;;;;5.17;3.50;;;;;;;20.87;38.55;99469.23;1662873;86;21277;-60
2022/04/10 01:36:35;;;;;;;6.90;3.27;;;;;;;20.87;38.55;99464.52;1662423;86;21343;-60
2022/04/10 01:39:04;;;;;;;6.83;3.30;;;;;;;20.86;38.55;99466.23;1662965;85;21370;-60
2022/04/10 01:41:30;;;;;;;4.22;3.22;;;;;;;20.87;38.58;99467.85;1662227;85;21076;-60
2022/04/10 01:43:58;;;;;;;4.70;3.37;;;;;;;20.87;38.58;99470.62;1662750;85;20981;-60
2022/04/10 01:46:27;;;;;;;6.00;2.95;;;;;;;20.86;38.58;99470.39;1662827;86;21307;-60
2022/04/10 01:48:53;;;;;;;5.83;3.60;;;;;;;20.86;38.59;99464.86;1663085;86;21356;-60
2022/04/10 01:51:19;;;;;;;4.72;3.33;;;;;;;20.86;38.57;99468.43;1662640;86;21416;-59
2022/04/10 01:53:45;;;;;;;5.60;3.27;;;;;;;20.85;38.58;99468.20;1662856;85;20966;-60
2022/04/10 01:56:11;;;;;;;5.30;3.45;;;;;;;20.86;38.58;99476.72;1662875;86;20909;-60
2022/04/10 01:58:40;;;;;;;5.10;3.80;;;;;;;20.86;38.54;99474.53;1662504;86;21876;-60
2022/04/10 02:01:08;;;;;;;5.17;3.60;;;;;;;20.85;38.56;99474.30;1662373;86;20915;-60
2022/04/10 02:03:34;;;;;;;4.62;3.47;;;;;;;20.85;38.55;99477.06;1662797;85;21356;-60
2022/04/10 02:06:01;;;;;;;4.17;3.00;;;;;;;20.85;38.59;99486.16;1662821;86;21048;-60
2022/04/10 02:08:28;;;;;;;4.75;3.15;;;;;;;20.85;38.55;99492.27;1662667;86;21287;-59
2022/04/10 02:10:54;;;;;;;5.15;3.12;;;;;;;20.86;38.55;99498.84;1663007;86;21831;-60
2022/04/10 02:13:20;;;;;;;5.37;3.12;;;;;;;20.86;38.55;99515.42;1662557;85;20988;-60
2022/04/10 02:15:47;;;;;;;4.30;2.92;;;;;;;20.85;38.55;99529.02;1662572;85;21493;-59
2022/04/10 02:18:13;;;;;;;4.65;3.10;;;;;;;20.85;38.54;99512.42;1662711;85;21037;-60
2022/04/10 02:20:39;;;;;;;4.58;2.87;;;;;;;20.86;38.54;99529.82;1662620;86;22122;-60
2022/04/10 02:23:05;;;;;;;4.85;3.17;;;;;;;20.87;38.54;99525.34;1662784;86;21709;-60
2022/04/10 02:25:32;;;;;;;4.80;3.40;;;;;;;20.86;38.52;99511.28;1662707;86;20949;-60
2022/04/10 02:27:58;;;;;;;6.70;3.58;;;;;;;20.86;38.52;99523.72;1662699;86;21811;-60
2022/04/10 02:30:24;;;;;;;5.53;3.15;;;;;;;20.86;38.55;99534.78;1662746;86;21341;-60
2022/04/10 02:32:50;;;;;;;5.00;2.92;;;;;;;20.86;38.54;99540.30;1663000;86;21950;-60
2022/04/10 02:35:16;;;;;;;3.92;3.12;;;;;;;20.86;38.53;99543.64;1662521;86;21948;-60
2022/04/10 02:37:45;;;;;;;4.35;3.40;;;;;;;20.86;38.52;99552.75;1662857;86;20969;-60
2022/04/10 02:40:14;;;;;;;4.42;3.08;;;;;;;20.86;38.53;99559.66;1662831;86;21026;-60
2022/04/10 02:42:39;;;;;;;4.47;3.17;;;;;;;20.86;38.54;99559.66;1662490;86;21040;-60
2022/04/10 02:45:07;;;;;;;4.15;2.90;;;;;;;20.86;38.53;99562.99;1662908;86;20937;-60
2022/04/10 02:47:33;;;;;;;4.45;2.95;;;;;;;20.86;38.52;99565.76;1662806;85;21396;-60
2022/04/10 02:50:00;;;;;;;4.65;2.98;;;;;;;20.85;38.52;99566.91;1662748;86;21487;-59
2022/04/10 02:52:26;;;;;;;5.70;3.52;;;;;;;20.85;38.52;99570.48;1662832;86;21016;-60
2022/04/10 02:54:52;;;;;;;4.72;3.30;;;;;;;20.85;38.53;99570.48;1662816;86;21524;-60
2022/04/10 02:57:18;;;;;;;4.65;2.92;;;;;;;20.85;38.53;99575.20;1662443;86;21017;-60
2022/04/10 02:59:45;;;;;;;4.87;3.15;;;;;;;20.85;38.51;99578.77;1662859;86;21398;-60
2022/04/10 03:02:11;;;;;;;4.67;3.42;;;;;;;20.85;38.52;99580.73;1662637;85;21000;-60
2022/04/10 03:04:37;;;;;;;5.12;3.08;;;;;;;20.85;38.52;99582.11;1662585;86;20918;-60
2022/04/10 03:07:03;;;;;;;3.98;2.60;;;;;;;20.84;38.53;99592.36;1662636;86;21409;-60
2022/04/10 03:09:30;;;;;;;5.20;3.15;;;;;;;20.84;38.52;99590.98;1662742;86;20989;-60
2022/04/10 03:11:56;;;;;;;4.83;3.00;;;;;;;20.84;38.52;99596.50;1662588;86;21895;-59
2022/04/10 03:14:22;;;;;;;6.62;3.10;;;;;;;20.84;38.52;99593.73;1662587;86;21437;-60
2022/04/10 03:16:48;;;;;;;6.37;4.03;;;;;;;20.84;38.53;99591.55;1662930;86;20921;-60
2022/04/10 03:19:14;;;;;;;3.95;3.10;;;;;;;20.83;38.53;99596.30;1646465;84;21068;-60
2022/04/10 03:21:40;;;;;;;4.50;3.10;;;;;;;20.83;38.53;99601.02;1638581;87;21353;-60
2022/04/10 03:24:07;;;;;;;5.10;3.10;;;;;;;20.83;38.52;99607.93;1638128;87;21335;-60
2022/04/10 03:26:34;;;;;;;5.33;2.83;;;;;;;20.84;38.52;99606.75;1638108;87;20972;-60
2022/04/10 03:29:00;;;;;;;4.33;2.77;;;;;;;20.83;38.53;99606.55;1638342;87;21081;-60
2022/04/10 03:31:26;;;;;;;4.28;2.85;;;;;;;20.83;38.52;99614.84;1638241;87;21068;-60
2022/04/10 03:33:52;;;;;;;3.52;2.52;;;;;;;20.82;38.51;99618.18;1638086;87;21468;-60
2022/04/10 03:36:18;;;;;;;3.98;2.70;;;;;;;20.81;38.51;99620.70;1638250;87;21067;-60
2022/04/10 03:38:44;;;;;;;4.87;2.95;;;;;;;20.82;38.51;99628.42;1638263;87;20957;-60
2022/04/10 03:41:10;;;;;;;4.25;3.10;;;;;;;20.82;38.50;99625.09;1637737;87;21003;-60
2022/04/10 03:43:36;;;;;;;3.52;2.60;;;;;;;20.81;38.51;99617.94;1638309;87;20993;-60
2022/04/10 03:46:02;;;;;;;4.08;2.75;;;;;;;20.82;38.50;99622.90;1638112;87;20984;-60
2022/04/10 03:48:29;;;;;;;5.15;2.85;;;;;;;20.80;38.51;99627.38;1638136;87;21335;-60
2022/04/10 03:50:55;;;;;;;4.42;2.67;;;;;;;20.82;38.50;99633.38;1637977;87;20940;-60
2022/04/10 03:53:21;;;;;;;4.45;2.95;;;;;;;20.80;38.49;99628.77;1638418;87;21103;-60
2022/04/10 03:55:47;;;;;;;4.40;3.10;;;;;;;20.81;38.49;99631.77;1638049;87;21319;-60
2022/04/10 03:58:14;;;;;;;5.50;2.95;;;;;;;20.80;38.47;99641.20;1638339;87;21051;-60
2022/04/10 04:00:47;;;;;;;5.80;2.90;;;;;;;20.80;38.49;99646.73;1637978;86;21430;-60
2022/04/10 04:03:14;;;;;;;3.90;2.62;;;;;;;20.80;38.48;99656.41;1637705;87;20977;-60
2022/04/10 04:05:40;;;;;;;3.27;2.65;;;;;;;20.80;38.48;99668.84;1638323;87;21037;-60
2022/04/10 04:08:07;;;;;;;5.97;2.70;;;;;;;20.80;38.47;99668.84;1637921;87;20878;-60
2022/04/10 04:10:34;;;;;;;3.45;2.60;;;;;;;20.80;38.48;99675.76;1638093;87;20961;-60
2022/04/10 04:13:00;;;;;;;4.22;2.87;;;;;;;20.79;38.46;99668.61;1637996;87;21273;-60
2022/04/10 04:15:27;;;;;;;3.83;2.35;;;;;;;20.78;38.46;99667.02;1638205;86;20913;-60
2022/04/10 04:17:53;;;;;;;3.08;2.52;;;;;;;20.79;38.48;99668.61;1637947;87;20948;-60
2022/04/10 04:20:19;;;;;;;3.45;2.83;;;;;;;20.78;38.46;99675.31;1661639;84;21432;-60
2022/04/10 04:22:45;;;;;;;4.83;2.67;;;;;;;20.79;38.45;99671.98;1662629;85;22022;-60
2022/04/10 04:25:11;;;;;;;3.62;2.62;;;;;;;20.79;38.44;99667.83;1662573;86;21323;-60
2022/04/10 04:27:38;;;;;;;4.40;2.75;;;;;;;20.78;38.46;99660.11;1662588;86;21419;-60
2022/04/10 04:30:06;;;;;;;4.25;2.70;;;;;;;20.79;38.45;99662.30;1662525;85;21352;-60
2022/04/10 04:32:32;;;;;;;4.12;2.47;;;;;;;20.78;38.44;99656.53;1662568;86;20922;-60
2022/04/10 04:34:58;;;;;;;3.70;2.83;;;;;;;20.77;38.44;99651.58;1662552;86;22035;-60
2022/04/10 04:37:24;;;;;;;4.37;2.62;;;;;;;20.78;38.44;99656.53;1662666;85;21041;-60
2022/04/10 04:39:50;;;;;;;3.22;2.50;;;;;;;20.78;38.44;99646.86;1662196;86;20925;-60
2022/04/10 04:42:16;;;;;;;3.55;2.65;;;;;;;20.77;38.43;99644.67;1662680;86;20996;-60
2022/04/10 04:44:42;;;;;;;2.58;2.20;;;;;;;20.77;38.42;99650.20;1662208;86;20909;-60
2022/04/10 04:47:08;;;;;;;4.50;2.83;;;;;;;20.77;38.43;99653.53;1662391;86;21027;-60
2022/04/10 04:49:34;;;;;;;2.98;2.35;;;;;;;20.77;38.44;99659.06;1662605;86;21124;-60
2022/04/10 04:52:00;;;;;;;4.03;2.33;;;;;;;20.77;38.42;99661.25;1660139;86;21436;-60
2022/04/10 04:54:26;;;;;;;3.10;2.55;;;;;;;20.77;38.42;99650.77;1659842;84;21539;-59
2022/04/10 04:56:53;;;;;;;4.08;2.70;;;;;;;20.77;38.40;99649.39;1653273;86;21115;-59
2022/04/10 04:59:19;;;;;;;3.83;2.30;;;;;;;20.76;38.42;99645.81;1679692;84;21049;-60
2022/04/10 05:01:45;;;;;;;3.35;2.60;;;;;;;20.76;38.43;99641.67;1689048;84;21347;-60
2022/04/10 05:04:11;;;;;;;2.95;2.12;;;;;;;20.77;38.42;99637.76;1659789;86;20970;-60
2022/04/10 05:06:38;;;;;;;3.47;2.37;;;;;;;20.76;38.40;99629.80;1632088;87;21025;-60
2022/04/10 05:09:05;;;;;;;4.03;2.60;;;;;;;20.77;38.42;99642.48;1661413;86;21979;-60
2022/04/10 05:11:31;;;;;;;4.45;2.42;;;;;;;20.77;38.39;99652.16;1636141;85;21347;-61
2022/04/10 05:14:00;;;;;;;3.92;2.30;;;;;;;20.76;38.40;99655.48;1651106;86;22081;-60
2022/04/10 05:16:26;;;;;;;3.92;2.27;;;;;;;20.76;38.37;99662.39;1657610;86;21484;-60
2022/04/10 05:18:52;;;;;;;3.08;2.00;;;;;;;20.76;38.42;99665.73;1664155;85;21512;-60
2022/04/10 05:21:18;;;;;;;3.83;2.33;;;;;;;20.76;38.37;99673.45;1668073;85;20895;-60
2022/04/10 05:23:44;;;;;;;3.42;2.12;;;;;;;20.76;38.37;99666.55;1668438;85;21305;-59
2022/04/10 05:26:10;;;;;;;3.08;2.42;;;;;;;20.76;38.36;99664.35;1660821;86;21312;-59
2022/04/10 05:28:36;;;;;;;3.92;2.25;;;;;;;20.76;38.36;99667.92;1620787;87;21421;-61
2022/04/10 05:31:04;;;;;;;3.08;2.50;;;;;;;20.76;38.37;99672.07;1631915;86;20901;-59
2022/04/10 05:33:36;;;;;;;3.02;2.33;;;;;;;20.76;38.36;99666.55;1642826;85;21034;-60
2022/04/10 05:36:02;;;;;;;3.67;2.30;;;;;;;20.76;38.33;99663.78;1644077;86;21516;-60
2022/04/10 05:38:28;;;;;;;3.42;2.27;;;;;;;20.76;38.33;99662.97;1657250;86;21904;-60
2022/04/10 05:40:54;;;;;;;3.00;2.37;;;;;;;20.76;38.33;99666.55;1667671;85;21265;-60
2022/04/10 05:43:22;;;;;;;2.98;2.20;;;;;;;20.77;38.31;99672.88;1668565;85;21370;-60
2022/04/10 05:45:49;;;;;;;3.37;2.40;;;;;;;20.75;38.32;99673.22;1662781;84;21031;-60
2022/04/10 05:48:15;;;;;;;3.85;2.37;;;;;;;20.76;38.32;99670.69;1671465;84;21028;-60
2022/04/10 05:50:42;;;;;;;2.90;2.10;;;;;;;20.75;38.33;99667.69;1683288;84;21102;-60
2022/04/10 05:53:08;;;;;;;3.30;2.25;;;;;;;20.75;38.29;99664.14;1652376;86;21455;-60
2022/04/10 05:55:34;;;;;;;4.40;2.30;;;;;;;20.75;38.30;99664.14;1662868;84;21049;-60
2022/04/10 05:58:01;;;;;;;4.17;2.20;;;;;;;20.75;38.27;99655.85;1657611;85;21453;-60
2022/04/10 06:00:27;;;;;;;3.60;2.58;;;;;;;20.75;38.31;99664.14;1640991;86;21013;-60
2022/04/10 06:02:53;;;;;;;3.80;2.10;;;;;;;20.75;38.29;99682.11;1643136;87;21622;-60
2022/04/10 06:05:20;;;;;;;3.20;2.30;;;;;;;20.75;38.27;99702.84;1658226;84;20917;-59
2022/04/10 06:07:46;;;;;;;4.72;3.50;;;;;;;20.75;38.27;99742.31;1646974;84;22204;-60
2022/04/10 06:10:12;;;;;;;7.33;4.45;;;;;;;20.75;38.29;99750.61;1631901;87;20976;-60
2022/04/10 06:12:39;;;;;;;3.95;2.90;;;;;;;20.75;38.31;99749.83;1642691;87;21082;-60
2022/04/10 06:15:05;;;;;;;4.25;3.15;;;;;;;20.73;38.30;99738.30;1644051;86;21370;-60
2022/04/10 06:17:31;;;;;;;4.45;3.00;;;;;;;20.74;38.32;99742.11;1644978;87;21423;-60
2022/04/10 06:19:58;;;;;;;3.67;2.75;;;;;;;20.74;38.32;99746.26;1644326;87;20915;-60
2022/04/10 06:22:24;;;;;;;5.58;2.72;;;;;;;20.74;38.29;99758.70;1644310;87;21071;-60
2022/04/10 06:24:53;;;;;;;4.60;2.72;;;;;;;20.74;38.27;99759.27;1644335;87;21055;-60
2022/04/10 06:27:20;;;;;;;3.75;2.77;;;;;;;20.74;38.26;99762.84;1643817;87;21555;-60
2022/04/10 06:29:47;;;;;;;3.98;2.72;;;;;;;20.73;38.26;99763.98;1643631;86;21039;-60
2022/04/10 06:32:13;;;;;;;4.67;2.62;;;;;;;20.73;38.26;99765.94;1645082;86;21458;-60
2022/04/10 06:34:40;;;;;;;5.90;3.00;;;;;;;20.72;38.26;99767.89;1644875;86;20955;-60
2022/04/10 06:37:07;;;;;;;4.30;2.80;;;;;;;20.73;38.27;99764.55;1645092;86;20891;-60
2022/04/10 06:39:35;;;;;;;4.05;2.72;;;;;;;20.71;38.25;99773.18;1645041;86;21407;-60
2022/04/10 06:42:01;;;;;;;6.08;3.25;;;;;;;20.73;38.25;99794.96;1645053;87;20958;-60
2022/04/10 06:44:27;;;;;;;5.78;2.80;;;;;;;20.72;38.25;99795.53;1644539;87;21094;-60
2022/04/10 06:46:53;;;;;;;3.90;2.65;;;;;;;20.73;38.25;99800.48;1644862;87;21055;-60
2022/04/10 06:49:22;;;;;;;4.20;3.05;;;;;;;20.73;38.24;99807.40;1644868;86;20939;-60
2022/04/10 06:51:47;;;;;;;4.15;2.55;;;;;;;20.73;38.24;99826.75;1644539;86;21326;-60
2022/04/10 06:54:13;;;;;;;4.47;2.90;;;;;;;20.72;38.24;99828.70;1644486;86;21489;-60
2022/04/10 06:56:39;;;;;;;4.67;3.08;;;;;;;20.73;38.21;99836.42;1644785;87;20895;-60
2022/04/10 06:59:12;;;;;;;4.58;3.08;;;;;;;20.72;38.21;99830.66;1644493;87;20996;-60
2022/04/10 07:01:38;;;;;;;3.80;2.83;;;;;;;20.72;38.23;99827.32;1644932;87;21111;-60
2022/04/10 07:04:05;;;;;;;5.12;3.47;;;;;;;20.72;38.23;99835.61;1644851;86;21078;-60
2022/04/10 07:06:31;;;;;;;4.78;3.20;;;;;;;20.72;38.21;99842.52;1644535;87;21002;-60
2022/04/10 07:08:57;;;;;;;4.37;3.45;;;;;;;20.71;38.22;99842.28;1644947;86;20955;-60
2022/04/10 07:11:24;;;;;;;4.50;3.10;;;;;;;20.72;38.23;99845.28;1644695;86;20971;-60
2022/04/10 07:13:50;;;;;;;5.53;3.50;;;;;;;20.72;38.20;99844.47;1644580;87;21538;-60
2022/04/10 07:16:16;;;;;;;4.97;3.30;;;;;;;20.71;38.21;99860.25;1644768;86;21297;-60
2022/04/10 07:18:42;;;;;;;4.70;3.00;;;;;;;20.71;38.19;99857.48;1644893;86;21356;-60
2022/04/10 07:21:08;;;;;;;3.85;3.20;;;;;;;20.71;38.19;99863.61;1644495;86;20935;-60
2022/04/10 07:23:45;;;;;;;4.60;3.42;;;;;;;20.70;38.20;99860.04;1644593;86;21069;-60
2022/04/10 07:26:14;;;;;;;5.90;3.60;;;;;;;20.71;38.20;99860.25;1644457;87;21063;-60
2022/04/10 07:28:41;;;;;;;5.05;3.27;;;;;;;20.70;38.18;99872.48;1644471;87;21371;-60
2022/04/10 07:31:08;;;;;;;5.15;3.33;;;;;;;20.70;38.19;99883.53;1644866;86;21006;-60
2022/04/10 07:33:35;;;;;;;4.22;2.87;;;;;;;20.70;38.20;99904.84;1644405;86;20943;-60
2022/04/10 07:36:01;;;;;;;4.78;3.50;;;;;;;20.69;38.20;99917.84;1644876;86;20993;-60
2022/04/10 07:38:27;;;;;;;4.80;3.15;;;;;;;20.70;38.19;99934.67;1644949;87;21055;-60
2022/04/10 07:40:53;;;;;;;5.80;3.40;;;;;;;20.70;38.20;99930.52;1644155;86;21850;-60
2022/04/10 07:43:19;;;;;;;5.05;3.72;;;;;;;20.70;38.19;99922.80;1644019;86;21045;-60
2022/04/10 07:48:30;;;;;;;5.62;3.62;;;;;;;20.69;38.17;99886.63;1644513;86;21439;-60
2022/04/10 07:50:57;;;;;;;4.17;3.25;;;;;;;20.69;38.15;99881.09;1644890;87;20859;-60
2022/04/10 07:53:24;;;;;;;4.65;3.60;;;;;;;20.68;38.15;99861.51;1644570;86;21866;-60
2022/04/10 07:55:52;;;;;;;5.37;3.90;;;;;;;20.68;38.16;99845.73;1644549;87;20876;-60
2022/04/10 07:58:19;;;;;;;5.20;3.77;;;;;;;20.67;38.17;99840.54;1644657;86;32671;-60
2022/04/10 08:00:46;;;;;;;5.33;3.47;;;;;;;20.67;38.15;99846.88;1644347;87;21492;-60
2022/04/10 08:03:12;;;;;;;4.58;3.55;;;;;;;20.67;38.17;99840.54;1644707;87;21030;-60
2022/04/10 08:05:38;;;;;;;5.22;3.58;;;;;;;20.68;38.17;99851.84;1644550;87;21245;-60
2022/04/10 08:08:06;;;;;;;5.03;3.65;;;;;;;20.67;38.17;99849.64;1644653;86;22012;-60
2022/04/10 08:10:32;;;;;;;4.85;3.83;;;;;;;20.67;38.17;99842.73;1644551;86;20943;-60
2022/04/10 08:12:58;;;;;;;6.10;3.60;;;;;;;20.67;38.16;99841.34;1644903;86;20927;-60
2022/04/10 08:15:24;;;;;;;4.90;3.60;;;;;;;20.66;38.14;99838.95;1644608;87;21030;-60
2022/04/10 08:17:51;;;;;;;9.38;4.10;;;;;;;20.66;38.14;99836.19;1644674;86;21699;-60
2022/04/10 08:20:17;;;;;;;5.17;3.90;;;;;;;20.66;38.14;99834.23;1644454;86;20983;-60
2022/04/10 08:22:49;;;;;;;6.95;4.22;;;;;;;20.65;38.16;99843.66;1644772;86;21010;-60
2022/04/10 08:25:23;;;;;;;4.90;3.72;;;;;;;20.65;38.17;99865.77;1644620;86;20980;-60
2022/04/10 08:27:46;;;;;;;5.65;3.85;;;;;;;20.65;38.17;99880.16;1644188;87;20974;-59
2022/04/10 08:30:13;;;;;;;5.22;3.90;;;;;;;20.64;38.17;99891.79;1644643;86;21223;-60
2022/04/10 08:32:40;;;;;;;4.47;3.87;;;;;;;20.64;38.17;99891.79;1644447;87;20997;-60
2022/04/10 08:35:07;;;;;;;6.25;3.83;;;;;;;20.64;38.18;99894.55;1644844;86;21489;-60
2022/04/10 08:37:34;;;;;;;4.95;3.42;;;;;;;20.64;38.18;99894.55;1644607;87;21112;-60
2022/04/10 08:40:00;;;;;;;5.55;3.95;;;;;;;20.63;38.21;99897.08;1644650;86;22095;-60
2022/04/10 08:42:26;;;;;;;5.22;3.77;;;;;;;20.64;38.21;99879.92;1644687;87;21045;-60
2022/04/10 08:44:55;;;;;;;5.72;3.85;;;;;;;20.64;38.21;99872.44;1644890;87;21057;-60
2022/04/10 08:47:21;;;;;;;5.42;3.83;;;;;;;20.63;38.23;99873.58;1644577;87;21106;-60
2022/04/10 08:49:48;;;;;;;7.17;3.70;;;;;;;20.64;38.22;99893.73;1644869;86;21009;-60
2022/04/10 08:52:16;;;;;;;5.72;4.17;;;;;;;20.63;38.24;99908.70;1644838;86;21982;-60
2022/04/10 08:54:42;;;;;;;6.12;3.85;;;;;;;20.63;38.22;99930.23;1622138;87;21912;-60
2022/04/10 08:57:08;;;;;;;5.25;3.67;;;;;;;20.63;38.22;99914.23;1644985;86;21345;-60
2022/04/10 08:59:34;;;;;;;5.37;3.92;;;;;;;20.64;38.19;99890.41;1644841;86;21027;-60
2022/04/10 09:02:00;;;;;;;6.45;4.03;;;;;;;20.63;38.23;99868.62;1644581;86;20974;-60
2022/04/10 09:04:26;;;;;;;5.33;3.60;;;;;;;20.62;38.21;99866.46;1644648;87;20903;-60
2022/04/10 09:06:59;;;;;;;5.55;4.28;;;;;;;20.62;38.24;99861.51;1644789;86;21367;-60
2022/04/10 09:09:26;;;;;;;5.92;3.87;;;;;;;20.62;38.23;99847.12;1644582;86;20935;-60
2022/04/10 09:11:53;;;;;;;5.65;4.25;;;;;;;20.61;38.25;99841.34;1644846;86;21319;-60
2022/04/10 09:14:23;;;;;;;5.40;3.80;;;;;;;20.61;38.24;99853.78;1644618;86;20950;-60
2022/04/10 09:17:22;;;;;;;5.60;4.00;;;;;;;20.61;38.24;99845.49;1644174;86;21483;-60
2022/04/10 09:19:53;;;;;;;5.12;3.72;;;;;;;20.61;38.21;99839.16;1644818;87;21136;-61
2022/04/10 09:22:42;;;;;;;6.35;4.40;;;;;;;20.60;38.23;99827.86;1644657;86;21460;-61
2022/04/10 09:25:15;;;;;;;4.55;4.08;;;;;;;20.60;38.24;99834.20;1644019;87;21576;-59
2022/04/10 09:27:46;;;;;;;4.50;3.40;;;;;;;20.59;38.20;99842.25;1644457;87;21438;-59
2022/04/10 09:30:24;;;;;;;5.10;4.03;;;;;;;20.59;38.24;99840.05;1644773;86;21026;-59
2022/04/10 09:32:52;;;;;;;5.97;3.92;;;;;;;20.58;38.25;99837.86;1644901;86;21240;-59
2022/04/10 09:35:20;;;;;;;4.97;3.80;;;;;;;20.58;38.25;99839.25;1644678;86;21046;-59
2022/04/10 09:37:52;;;;;;;4.97;4.03;;;;;;;20.58;38.26;99836.48;1644737;87;21311;-59
2022/04/10 09:40:32;;;;;;;5.47;4.28;;;;;;;20.58;38.28;99822.66;1644608;87;20966;-60
2022/04/10 09:43:07;;;;;;;6.33;4.40;;;;;;;20.58;38.28;99851.68;1645037;87;21078;-60
2022/04/10 09:45:40;;;;;;;4.92;3.60;;;;;;;20.57;38.28;99879.11;1644715;86;21065;-59
2022/04/10 09:48:30;;;;;;;5.85;3.62;;;;;;;20.57;38.27;99897.06;1644726;87;20999;-60
2022/04/10 09:51:00;;;;;;;5.62;3.47;;;;;;;20.58;38.31;99897.88;1644318;87;21019;-60
2022/04/10 09:53:26;;;;;;;5.85;3.85;;;;;;;20.57;38.28;99880.48;1644678;86;21019;-60
2022/04/10 09:56:00;;;;;;;5.05;3.72;;;;;;;20.57;38.28;99870.81;1644635;87;21006;-60
2022/04/10 09:58:26;;;;;;;5.22;3.90;;;;;;;20.57;38.32;99865.29;1643823;87;21260;-60
2022/04/10 10:00:56;;;;;;;5.67;4.00;;;;;;;20.56;38.32;99871.95;1644683;87;21045;-60
2022/04/10 10:03:29;;;;;;;5.40;4.20;;;;;;;20.56;38.34;99873.34;1645011;86;20942;-60
2022/04/10 10:05:57;;;;;;;5.67;3.67;;;;;;;20.55;38.33;99881.38;1644500;86;21026;-60
2022/04/10 10:08:24;;;;;;;5.12;3.75;;;;;;;20.56;38.33;99903.73;1644810;87;21124;-60
2022/04/10 10:10:50;;;;;;;4.20;3.55;;;;;;;20.56;38.34;99902.35;1644467;86;21313;-60
2022/04/10 10:13:16;;;;;;;5.50;4.20;;;;;;;20.56;38.34;99905.12;1644451;86;20943;-60
2022/04/10 10:15:43;;;;;;;5.83;3.75;;;;;;;20.55;38.36;99917.31;1644656;86;21065;-60
2022/04/10 10:18:13;;;;;;;5.20;3.33;;;;;;;20.55;38.37;99919.26;1644654;87;21400;-60
2022/04/10 10:20:42;;;;;;;5.17;3.90;;;;;;;20.55;38.37;99920.64;1643571;86;21487;-60
2022/04/10 10:23:12;;;;;;;4.42;3.62;;;;;;;20.55;38.39;99907.64;1641220;86;21879;-60
2022/04/10 10:26:07;;;;;;;4.33;3.65;;;;;;;20.54;38.41;99890.81;1640239;87;21027;-60
2022/04/10 10:28:57;;;;;;;5.12;3.85;;;;;;;20.54;38.41;99871.47;1640787;87;20979;-59
2022/04/10 10:31:45;;;;;;;6.70;3.75;;;;;;;20.53;38.36;99874.02;1641146;87;20996;-59
2022/04/10 10:34:11;;;;;;;5.10;3.58;;;;;;;20.53;38.38;99871.83;1640832;87;21055;-59
2022/04/10 10:36:37;;;;;;;5.25;3.62;;;;;;;20.54;38.40;99883.12;1641356;87;21269;-59
2022/04/10 10:39:05;;;;;;;5.80;3.92;;;;;;;20.52;38.41;99886.22;1641115;86;21014;-59
2022/04/10 10:41:36;;;;;;;4.85;3.35;;;;;;;20.52;38.43;99886.22;1640954;87;20931;-59
2022/04/10 10:44:16;;;;;;;3.65;3.02;;;;;;;20.52;38.42;99877.92;1641340;87;21448;-59
2022/04/10 10:47:00;;;;;;;5.35;3.20;;;;;;;20.51;38.43;99896.45;1641150;87;21529;-59
2022/04/10 10:49:34;;;;;;;5.85;3.67;;;;;;;20.52;38.43;99917.99;1640916;87;21134;-59
2022/04/10 10:52:09;;;;;;;5.00;3.60;;;;;;;20.52;38.43;99933.19;1640955;87;21019;-59
2022/04/10 10:54:35;;;;;;;5.70;3.72;;;;;;;20.51;38.44;99935.14;1641388;87;21316;-59
2022/04/10 10:57:31;;;;;;;6.40;3.67;;;;;;;20.51;38.42;99934.33;1641192;87;21011;-59
2022/04/10 11:00:08;;;;;;;6.67;3.60;;;;;;;20.50;38.44;99932.14;1640914;87;21026;-59
2022/04/10 11:02:50;;;;;;;5.30;4.30;;;;;;;20.51;38.46;99929.62;1641017;87;21016;-59
2022/04/10 11:05:33;;;;;;;5.62;3.77;;;;;;;20.50;38.46;99927.18;1616532;87;21407;-59
2022/04/10 11:08:08;;;;;;;6.85;3.55;;;;;;;20.51;38.45;99928.23;1641314;87;20924;-59
2022/04/10 11:10:52;;;;;;;5.67;3.40;;;;;;;20.51;38.46;99927.42;1616637;87;21039;-59
2022/04/10 11:13:19;;;;;;;5.05;3.25;;;;;;;20.49;38.47;99926.40;1641236;87;21065;-59
2022/04/10 11:15:52;;;;;;;7.20;3.65;;;;;;;20.50;38.46;99924.41;1641080;87;22351;-59
2022/04/10 11:18:31;;;;;;;4.37;3.45;;;;;;;20.50;38.45;99934.90;1641101;87;20879;-60
2022/04/10 11:21:02;;;;;;;4.87;3.67;;;;;;;20.49;38.49;99928.35;1641654;87;21009;-60
2022/04/10 11:23:30;;;;;;;5.85;3.60;;;;;;;20.49;38.49;99917.30;1644510;87;21503;-60
2022/04/10 11:26:07;;;;;;;4.75;3.50;;;;;;;20.48;38.50;99917.87;1644414;86;20986;-60
2022/04/10 11:28:59;;;;;;;4.92;3.65;;;;;;;20.49;38.50;99928.35;1644311;87;21398;-60
2022/04/10 11:31:35;;;;;;;4.00;3.00;;;;;;;20.48;38.51;99933.06;1644216;86;20963;-59
2022/04/10 11:34:15;;;;;;;6.12;3.55;;;;;;;20.48;38.49;99941.35;1644389;86;21011;-59
2022/04/10 11:36:54;;;;;;;4.42;3.42;;;;;;;20.48;38.51;99947.45;1644747;87;21061;-60
2022/04/10 11:39:29;;;;;;;5.22;3.70;;;;;;;20.48;38.51;99945.50;1643979;87;20967;-59
2022/04/10 11:42:11;;;;;;;5.10;3.27;;;;;;;20.49;38.52;99949.08;1644819;87;21063;-59